Impacts METAR Board
IDs:

KPDX - Portland Intl Arpt, OR, US

Updated at: 1300 UTC 07 Jul 2020
Potential Impact None Slight Moderate High
Time 07/01Z 07/02Z 07/03Z 07/04Z 07/05Z 07/06Z 07/07Z 07/08Z 07/09Z 07/10Z 07/11Z 07/12Z 07/13Z
Temp67 66 65 63 62 61 61 60 60 60 60 59 58
Dewpt51 51 52 52 52 52 51 51 50 50 50 50 50
Altim30.04 30.04 30.05 30.05 30.06 30.07 30.07 30.08 30.08 30.09 30.09 30.09 30.10
VIS10 10 10 10 10 10 10 10 10 10 10 10 10
CIG49 49 55 60 35 42 42 38 40 44 46 21 39
CoverOVCOVCOVCOVCOVCBKNBKNOVCOVCOVCOVCOVCOVC
FltCatVFRVFRVFRVFRVFRVFRVFRVFRVFRVFRVFRMVFRVFR
WX--------------------------
WDir3003003203203403303400035000200
WSpd10 9 10 7 5 7 3 5 0 3 0 4 6
WGst-- -- -- -- -- -- -- -- -- -- -- -- --
Raw hourly METARs
KPDX 070053Z 30010KT 10SM OVC049 19/11 A3004 RMK AO2 SLP171 T01940106
KPDX 070153Z 30009KT 10SM OVC049 19/11 A3004 RMK AO2 SLP173 T01890106
KPDX 070253Z 32010KT 10SM OVC055 18/11 A3005 RMK AO2 SLP174 T01830111 53001
KPDX 070353Z 32007KT 10SM SCT041 OVC060 17/11 A3005 RMK AO2 SLP174 T01720111
KPDX 070453Z 34005KT 10SM BKN035 OVC065 17/11 A3006 RMK AO2 SLP178 T01670111
KPDX 070553Z 33007KT 10SM BKN042 BKN065 16/11 A3007 RMK AO2 SLP180 T01610111 10200 20161 53006
KPDX 070653Z 34003KT 10SM BKN042 16/11 A3007 RMK AO2 SLP182 T01610106
KPDX 070753Z VRB05KT 10SM FEW025 OVC038 16/11 A3008 RMK AO2 SLP185 T01560106 402060139
KPDX 070853Z 00000KT 10SM OVC040 16/10 A3008 RMK AO2 SLP186 T01560100 51005
KPDX 070953Z 35003KT 10SM FEW034 OVC044 16/10 A3009 RMK AO2 SLP187 T01560100
KPDX 071053Z 00000KT 10SM OVC046 16/10 A3009 RMK AO2 SLP187 T01560100
KPDX 071153Z VRB04KT 10SM BKN021 OVC050 15/10 A3009 RMK AO2 SLP189 T01500100 10161 20150 53003
KPDX 071253Z 20006KT 10SM FEW028 BKN039 OVC060 14/10 A3010 RMK AO2 RAB15E24 SLP192 P0000 T01440100



Page loaded:  13:26 UTC  |   06:26 AM Pacific  |   07:26 AM Mountain  |   08:26 AM Central  |   09:26 AM Eastern

 

ADVISORIES

FORECASTS

FORECASTS

OBSERVATIONS

USER TOOLS

ABOUT US